createdAt,value
2018-04-12T00:00:16.856Z,8.35
2018-04-12T00:02:44.393Z,7.75
2018-04-12T00:05:12.680Z,7.72
2018-04-12T00:07:40.959Z,8.32
2018-04-12T00:10:09.267Z,11.75
2018-04-12T00:12:36.817Z,7.57
2018-04-12T00:15:04.359Z,7.85
2018-04-12T00:17:32.640Z,8.68
2018-04-12T00:20:00.176Z,7.10
2018-04-12T00:22:27.744Z,8.07
2018-04-12T00:24:56.053Z,7.18
2018-04-12T00:27:23.574Z,8.93
2018-04-12T00:29:51.133Z,8.77
2018-04-12T00:32:19.458Z,12.85
2018-04-12T00:34:46.974Z,9.60
2018-04-12T00:37:14.493Z,9.73
2018-04-12T00:39:42.028Z,8.48
2018-04-12T00:42:09.589Z,10.07
2018-04-12T00:44:37.098Z,8.10
2018-04-12T00:47:05.416Z,7.50
2018-04-12T00:49:32.939Z,10.13
2018-04-12T00:52:00.438Z,9.68
2018-04-12T00:54:27.950Z,11.15
2018-04-12T00:56:56.252Z,9.55
2018-04-12T00:59:23.765Z,9.10
2018-04-12T01:01:51.300Z,9.32
2018-04-12T01:04:18.806Z,8.75
2018-04-12T01:06:47.096Z,7.93
2018-04-12T01:09:14.614Z,8.32
2018-04-12T01:11:42.157Z,7.68
2018-04-12T01:14:09.857Z,7.40
2018-04-12T01:16:38.277Z,8.60
2018-04-12T01:19:05.988Z,9.07
2018-04-12T01:21:33.570Z,8.85
2018-04-12T01:24:01.298Z,8.77
2018-04-12T01:26:28.823Z,7.85
2018-04-12T01:28:56.347Z,9.20
2018-04-12T01:31:24.280Z,9.13
2018-04-12T01:33:51.821Z,8.70
2018-04-12T01:36:19.361Z,9.38
2018-04-12T01:38:46.869Z,9.40
2018-04-12T01:41:14.381Z,8.63
2018-04-12T01:43:41.911Z,9.45
2018-04-12T01:46:09.429Z,10.68
2018-04-12T01:48:36.945Z,9.77
2018-04-12T01:51:04.446Z,9.10
2018-04-12T01:53:31.981Z,9.52
2018-04-12T01:55:59.522Z,11.05
2018-04-12T01:58:27.061Z,8.68
2018-04-12T02:00:54.609Z,8.77
2018-04-12T02:03:22.156Z,10.02
2018-04-12T02:05:49.687Z,7.93
2018-04-12T02:08:17.225Z,9.07
2018-04-12T02:10:44.759Z,8.43
2018-04-12T02:13:12.269Z,8.85
2018-04-12T02:15:39.769Z,9.00
2018-04-12T02:18:07.310Z,12.10
2018-04-12T02:20:34.837Z,9.70
2018-04-12T02:23:02.378Z,8.20
2018-04-12T02:25:29.893Z,9.45
2018-04-12T02:27:57.401Z,8.18
2018-04-12T02:30:24.933Z,9.85
2018-04-12T02:32:52.452Z,10.80
2018-04-12T02:35:19.972Z,9.13
2018-04-12T02:37:47.482Z,11.98
2018-04-12T02:40:15.000Z,12.55
2018-04-12T02:42:42.544Z,9.20
2018-04-12T02:45:10.080Z,11.57
2018-04-12T02:47:37.628Z,10.75
2018-04-12T02:50:05.154Z,11.32
2018-04-12T02:52:32.694Z,12.00
2018-04-12T02:55:00.216Z,12.23
2018-04-12T02:57:27.756Z,11.88
2018-04-12T02:59:55.304Z,15.52
2018-04-12T03:02:22.813Z,18.92
2018-04-12T03:04:50.321Z,14.30
2018-04-12T03:07:18.629Z,15.43
2018-04-12T03:09:46.149Z,22.00
2018-04-12T03:12:13.694Z,19.77
2018-04-12T03:14:41.203Z,15.98
2018-04-12T03:17:08.743Z,21.05
2018-04-12T03:19:36.287Z,21.67
2018-04-12T03:22:04.575Z,21.33
2018-04-12T03:24:32.102Z,14.93
2018-04-12T03:26:59.659Z,21.50
2018-04-12T03:29:27.180Z,14.95
2018-04-12T03:31:54.711Z,16.48
2018-04-12T03:34:22.231Z,16.12
2018-04-12T03:36:49.742Z,14.68
2018-04-12T03:39:17.261Z,15.45
2018-04-12T03:41:44.823Z,18.23
2018-04-12T03:44:13.134Z,16.30
2018-04-12T03:46:40.679Z,17.60
2018-04-12T03:49:08.289Z,22.40
2018-04-12T03:51:35.775Z,18.52
2018-04-12T03:54:03.287Z,24.67
2018-04-12T03:56:30.810Z,17.50
2018-04-12T03:58:58.324Z,18.23
2018-04-12T04:01:25.833Z,19.17
2018-04-12T04:03:53.353Z,20.70
2018-04-12T04:06:20.866Z,22.00
2018-04-12T04:08:48.386Z,19.92
2018-04-12T04:11:15.937Z,25.73
2018-04-12T04:13:44.218Z,23.12
2018-04-12T04:16:24.179Z,26.42
2018-04-12T04:19:03.569Z,22.60
2018-04-12T04:21:31.119Z,22.98
2018-04-12T04:23:58.637Z,29.98
2018-04-12T04:26:26.192Z,26.62
2018-04-12T04:28:53.704Z,23.70
2018-04-12T04:31:21.250Z,20.35
2018-04-12T04:33:48.758Z,22.00
2018-04-12T04:36:17.032Z,29.50
2018-04-12T04:38:45.331Z,27.20
2018-04-12T04:41:12.839Z,25.73
2018-04-12T04:43:40.374Z,26.77
2018-04-12T04:46:07.925Z,27.83
2018-04-12T04:48:35.444Z,25.70
2018-04-12T04:51:03.726Z,34.03
2018-04-12T04:53:31.262Z,24.50
2018-04-12T04:55:58.788Z,22.33
2018-04-12T04:58:26.319Z,27.33
2018-04-12T05:00:53.880Z,23.48
2018-04-12T05:03:21.440Z,23.87
2018-04-12T05:05:48.989Z,25.55
2018-04-12T05:08:16.496Z,29.67
2018-04-12T05:10:44.035Z,25.27
2018-04-12T05:13:11.553Z,24.60
2018-04-12T05:15:39.169Z,23.60
2018-04-12T05:18:07.399Z,41.58
2018-04-12T05:20:34.948Z,23.83
2018-04-12T05:23:02.509Z,30.73
2018-04-12T05:25:30.030Z,25.70
2018-04-12T05:27:57.575Z,29.95
2018-04-12T05:30:25.130Z,27.55
2018-04-12T05:32:52.663Z,30.37
2018-04-12T05:35:20.223Z,28.30
2018-04-12T05:37:47.737Z,31.20
2018-04-12T05:40:15.280Z,28.50
2018-04-12T05:42:42.798Z,28.87
2018-04-12T05:45:10.345Z,31.40
2018-04-12T05:47:37.894Z,37.10
2018-04-12T05:50:05.410Z,35.90
2018-04-12T05:52:32.920Z,42.47
2018-04-12T05:55:00.439Z,32.95
2018-04-12T05:57:28.754Z,39.28
2018-04-12T05:59:56.300Z,47.38
2018-04-12T06:02:23.827Z,36.85
2018-04-12T06:04:52.142Z,34.25
2018-04-12T06:07:19.723Z,30.60
2018-04-12T06:09:47.251Z,31.50
2018-04-12T06:12:14.780Z,28.95
2018-04-12T06:14:42.335Z,22.85
2018-04-12T06:17:10.647Z,23.73
2018-04-12T06:19:38.179Z,19.05
2018-04-12T06:22:05.707Z,21.85
2018-04-12T06:24:33.232Z,21.77
2018-04-12T06:27:00.774Z,23.02
2018-04-12T06:29:28.349Z,22.67
2018-04-12T06:31:55.920Z,23.23
2018-04-12T06:34:23.452Z,17.87
2018-04-12T06:36:50.980Z,13.70
2018-04-12T06:39:18.513Z,13.45
2018-04-12T06:41:46.059Z,7.62
2018-04-12T06:44:13.596Z,15.15
2018-04-12T06:46:41.164Z,17.60
2018-04-12T06:49:08.727Z,12.55
2018-04-12T06:51:36.252Z,12.27
2018-04-12T06:54:03.851Z,10.52
2018-04-12T06:56:31.389Z,14.63
2018-04-12T06:58:58.915Z,16.45
2018-04-12T07:01:27.253Z,16.67
2018-04-12T07:03:54.847Z,16.00
2018-04-12T07:06:22.379Z,15.48
2018-04-12T07:08:49.931Z,13.50
2018-04-12T07:11:17.487Z,12.20
2018-04-12T07:13:45.063Z,12.75
2018-04-12T07:16:12.600Z,19.42
2018-04-12T07:18:40.152Z,21.23
2018-04-12T07:21:07.716Z,12.15
2018-04-12T07:23:35.253Z,12.50
2018-04-12T07:26:02.781Z,12.93
2018-04-12T07:28:30.321Z,12.32
2018-04-12T07:30:57.874Z,11.80
2018-04-12T07:33:25.406Z,12.35
2018-04-12T07:35:52.964Z,11.03
2018-04-12T07:38:20.482Z,9.60
2018-04-12T07:40:48.010Z,11.03
2018-04-12T07:43:15.548Z,8.97
2018-04-12T07:45:43.071Z,8.10
2018-04-12T07:48:10.580Z,9.30
2018-04-12T07:50:38.082Z,7.20
2018-04-12T07:53:05.621Z,8.93
2018-04-12T07:55:33.130Z,14.53
2018-04-12T07:58:00.646Z,7.87
2018-04-12T08:00:28.954Z,6.57
2018-04-12T08:02:56.473Z,6.60
2018-04-12T08:05:24.013Z,7.87
2018-04-12T08:07:51.534Z,13.07
2018-04-12T08:10:19.075Z,7.57
2018-04-12T08:12:46.625Z,13.23
2018-04-12T08:15:14.178Z,6.40
2018-04-12T08:17:41.687Z,7.50
2018-04-12T08:20:09.214Z,7.00
2018-04-12T08:22:36.756Z,5.73
2018-04-12T08:25:04.327Z,9.37
2018-04-12T08:27:31.841Z,7.53
2018-04-12T08:29:59.382Z,5.93
2018-04-12T08:32:26.895Z,6.70
2018-04-12T08:34:54.442Z,6.43
2018-04-12T08:37:21.981Z,8.37
2018-04-12T08:39:50.256Z,7.73
2018-04-12T08:42:18.533Z,6.83
2018-04-12T08:44:46.067Z,7.70
2018-04-12T08:47:13.613Z,12.00
2018-04-12T08:49:41.132Z,11.70
2018-04-12T08:52:08.665Z,5.20
2018-04-12T08:54:36.211Z,4.90
2018-04-12T08:57:03.746Z,6.07
2018-04-12T08:59:31.255Z,7.43
2018-04-12T09:01:58.770Z,6.73
2018-04-12T09:04:26.292Z,5.17
2018-04-12T09:06:53.800Z,7.43
2018-04-12T09:09:21.315Z,9.90
2018-04-12T09:11:48.850Z,12.50
2018-04-12T09:14:16.384Z,7.53
2018-04-12T09:16:44.708Z,5.43
2018-04-12T09:19:12.249Z,9.97
2018-04-12T09:21:39.785Z,8.90
2018-04-12T09:24:08.095Z,5.67
2018-04-12T09:26:35.659Z,8.10
2018-04-12T09:29:03.174Z,6.67
2018-04-12T09:31:30.692Z,10.30
2018-04-12T09:33:58.238Z,11.60
2018-04-12T09:36:25.797Z,8.73
2018-04-12T09:38:53.317Z,12.80
2018-04-12T09:41:21.642Z,5.40
2018-04-12T09:43:49.144Z,8.93
2018-04-12T09:46:17.504Z,8.10
2018-04-12T09:48:45.031Z,5.63
2018-04-12T09:51:12.554Z,5.37
2018-04-12T09:53:40.870Z,11.10
2018-04-12T09:56:08.420Z,4.80
2018-04-12T09:58:35.927Z,5.13
2018-04-12T10:01:09.916Z,8.00
2018-04-12T10:03:37.430Z,4.87
2018-04-12T10:06:04.987Z,4.53
2018-04-12T10:08:32.574Z,5.03
2018-04-12T10:11:00.098Z,5.60
2018-04-12T10:13:27.639Z,7.10
2018-04-12T10:15:55.908Z,7.43
2018-04-12T10:18:23.466Z,7.67
2018-04-12T10:20:51.760Z,4.87
2018-04-12T10:23:19.269Z,9.53
2018-04-12T10:25:46.787Z,5.30
2018-04-12T10:28:14.316Z,13.87
2018-04-12T10:30:41.846Z,5.90
2018-04-12T10:33:09.362Z,4.87
2018-04-12T10:35:36.878Z,9.00
2018-04-12T10:38:04.405Z,5.17
2018-04-12T10:40:31.941Z,5.30
2018-04-12T10:42:59.470Z,6.70
2018-04-12T10:45:26.998Z,11.87
2018-04-12T10:47:54.518Z,5.27
2018-04-12T10:50:22.071Z,8.00
2018-04-12T10:52:49.588Z,6.50
2018-04-12T10:55:17.108Z,5.27
2018-04-12T10:57:44.657Z,4.70
2018-04-12T11:00:12.187Z,5.60
2018-04-12T11:02:40.514Z,5.00
2018-04-12T11:05:08.054Z,5.17
2018-04-12T11:07:35.614Z,6.10
2018-04-12T11:10:03.148Z,7.40
2018-04-12T11:12:30.691Z,5.70
2018-04-12T11:14:58.985Z,9.47
2018-04-12T11:17:27.295Z,5.03
2018-04-12T11:19:54.843Z,5.27
2018-04-12T11:22:22.443Z,5.50
2018-04-12T11:24:51.514Z,5.47
2018-04-12T11:27:19.089Z,6.30
2018-04-12T11:29:46.657Z,4.23
2018-04-12T11:32:14.236Z,6.40
2018-04-12T11:34:42.530Z,4.77
2018-04-12T11:37:10.076Z,9.70
2018-04-12T11:39:37.609Z,4.80
2018-04-12T11:42:05.159Z,6.83
2018-04-12T11:44:32.667Z,3.87
2018-04-12T11:47:00.183Z,3.30
2018-04-12T11:49:27.766Z,3.63
2018-04-12T11:51:55.303Z,3.73
2018-04-12T11:54:22.834Z,4.73
2018-04-12T11:56:50.373Z,3.43
2018-04-12T11:59:17.916Z,9.07
2018-04-12T12:01:45.512Z,3.00
2018-04-12T12:04:13.010Z,2.90
2018-04-12T12:06:41.336Z,3.43
2018-04-12T12:09:08.875Z,3.03
2018-04-12T12:11:36.420Z,4.90
2018-04-12T12:14:04.735Z,2.80
2018-04-12T12:16:32.287Z,3.53
2018-04-12T12:18:59.846Z,4.40
2018-04-12T12:21:27.359Z,2.73
2018-04-12T12:23:55.647Z,2.77
2018-04-12T12:26:23.165Z,6.93
2018-04-12T12:28:50.742Z,3.07
2018-04-12T12:31:19.037Z,2.60
2018-04-12T12:33:47.325Z,3.00
2018-04-12T12:36:14.889Z,5.63
2018-04-12T12:38:42.418Z,3.77
2018-04-12T12:41:10.696Z,3.00
2018-04-12T12:43:44.970Z,3.03
2018-04-12T12:46:18.363Z,4.30
2018-04-12T12:48:51.707Z,5.50
2018-04-12T12:51:25.062Z,2.47
2018-04-12T12:53:58.371Z,2.50
2018-04-12T12:56:25.902Z,6.27
2018-04-12T12:58:59.370Z,3.07
2018-04-12T13:01:26.910Z,4.40
2018-04-12T13:03:55.225Z,2.10
2018-04-12T13:06:22.737Z,3.53
2018-04-12T13:08:56.104Z,2.60
2018-04-12T13:11:29.277Z,10.73
2018-04-12T13:13:56.781Z,2.97
2018-04-12T13:16:24.323Z,4.60
2018-04-12T13:18:51.840Z,5.27
2018-04-12T13:21:19.350Z,3.13
2018-04-12T13:23:58.738Z,3.03
2018-04-12T13:26:26.253Z,3.10
2018-04-12T13:28:53.817Z,3.13
2018-04-12T13:31:27.120Z,2.87
2018-04-12T13:33:55.402Z,3.90
2018-04-12T13:36:22.936Z,2.70
2018-04-12T13:38:50.454Z,2.77
2018-04-12T13:41:18.005Z,3.17
2018-04-12T13:43:45.553Z,3.33
2018-04-12T13:46:13.126Z,3.40
2018-04-12T13:48:40.665Z,4.00
2018-04-12T13:51:08.196Z,7.97
2018-04-12T13:53:42.264Z,2.43
2018-04-12T13:56:09.788Z,2.53
2018-04-12T13:58:37.306Z,2.87
2018-04-12T14:01:04.832Z,3.20
2018-04-12T14:03:32.348Z,4.50
2018-04-12T14:05:59.905Z,2.97
2018-04-12T14:08:28.218Z,2.50
2018-04-12T14:11:01.780Z,5.37
2018-04-12T14:13:30.061Z,2.83
2018-04-12T14:16:09.224Z,8.20
2018-04-12T14:18:36.767Z,6.80
2018-04-12T14:21:10.030Z,3.57
2018-04-12T14:23:44.024Z,3.20
2018-04-12T14:26:11.560Z,6.00
2018-04-12T14:28:44.861Z,2.60
2018-04-12T14:31:18.197Z,5.10
2018-04-12T14:33:45.731Z,3.60
2018-04-12T14:36:19.302Z,4.07
2018-04-12T14:38:46.775Z,94.07
2018-04-12T14:41:20.236Z,3.97
2018-04-12T14:43:47.756Z,3.30
2018-04-12T14:46:26.856Z,3.40
2018-04-12T14:48:54.411Z,2.57
2018-04-12T14:51:21.977Z,7.93
2018-04-12T14:53:49.537Z,5.03
2018-04-12T14:56:17.120Z,2.73
2018-04-12T14:58:50.268Z,3.90
2018-04-12T15:01:17.792Z,2.10
2018-04-12T15:03:51.141Z,1.97
2018-04-12T15:06:18.739Z,2.77
2018-04-12T15:08:47.001Z,2.77
2018-04-12T15:11:15.315Z,2.70
2018-04-12T15:13:48.584Z,2.90
2018-04-12T15:16:16.095Z,2.77
2018-04-12T15:18:43.635Z,4.53
2018-04-12T15:21:11.149Z,2.50
2018-04-12T15:23:38.655Z,3.07
2018-04-12T15:26:11.932Z,2.90
2018-04-12T15:28:45.354Z,2.43
2018-04-12T15:31:12.909Z,4.33
2018-04-12T15:33:40.422Z,2.83
2018-04-12T15:36:08.742Z,4.73
2018-04-12T15:38:36.295Z,2.50
2018-04-12T15:41:03.848Z,2.30
2018-04-12T15:43:31.400Z,2.37
2018-04-12T15:45:58.950Z,3.13
2018-04-12T15:48:27.219Z,2.23
2018-04-12T15:50:54.738Z,2.83
2018-04-12T15:53:22.286Z,3.20
2018-04-12T15:55:49.807Z,2.00
2018-04-12T15:58:23.333Z,2.27
2018-04-12T16:00:50.891Z,2.20
2018-04-12T16:03:18.415Z,2.07
2018-04-12T16:05:45.923Z,3.43
2018-04-12T16:08:13.468Z,2.10
2018-04-12T16:10:40.987Z,2.57
2018-04-12T16:13:08.502Z,3.50
2018-04-12T16:15:36.069Z,2.83
2018-04-12T16:18:09.508Z,3.73
2018-04-12T16:20:37.125Z,2.80
2018-04-12T16:23:04.731Z,2.20
2018-04-12T16:25:43.944Z,2.40
2018-04-12T16:28:11.476Z,1.80
2018-04-12T16:30:44.784Z,2.80
2018-04-12T16:33:18.189Z,2.30
2018-04-12T16:35:45.729Z,2.10
2018-04-12T16:38:19.889Z,4.43
2018-04-12T16:40:47.412Z,3.83
2018-04-12T16:43:15.737Z,2.73
2018-04-12T16:45:49.149Z,10.57
2018-04-12T16:48:22.288Z,12.57
2018-04-12T16:50:50.590Z,12.43
2018-04-12T16:53:18.095Z,9.23
2018-04-12T16:55:51.588Z,4.30
2018-04-12T16:58:25.009Z,1.90
2018-04-12T17:00:53.329Z,2.20
2018-04-12T17:03:20.843Z,4.30
2018-04-12T17:05:49.151Z,2.17
2018-04-12T17:08:16.669Z,2.40
2018-04-12T17:10:56.511Z,2.20
2018-04-12T17:13:30.812Z,5.87
2018-04-12T17:15:58.351Z,3.23
2018-04-12T17:18:25.905Z,4.87
2018-04-12T17:20:59.984Z,2.53
2018-04-12T17:23:27.536Z,3.20
2018-04-12T17:26:00.992Z,6.50
2018-04-12T17:28:29.323Z,2.67
2018-04-12T17:30:56.858Z,3.37
2018-04-12T17:33:24.406Z,3.50
2018-04-12T17:35:51.976Z,3.47
2018-04-12T17:38:20.278Z,2.93
2018-04-12T17:40:53.517Z,3.50
2018-04-12T17:43:21.073Z,3.63
2018-04-12T17:45:48.599Z,3.57
2018-04-12T17:48:16.120Z,3.20
2018-04-12T17:50:44.423Z,5.43
2018-04-12T17:53:23.645Z,6.60
2018-04-12T17:55:51.198Z,4.30
2018-04-12T17:58:18.737Z,10.17
2018-04-12T18:00:51.963Z,5.80
2018-04-12T18:03:19.529Z,4.10
2018-04-12T18:05:47.075Z,3.33
2018-04-12T18:08:14.629Z,7.50
2018-04-12T18:10:42.192Z,4.00
2018-04-12T18:13:09.740Z,6.63
2018-04-12T18:15:43.151Z,4.50
2018-04-12T18:18:10.691Z,9.47
2018-04-12T18:20:39.006Z,3.80
2018-04-12T18:23:12.488Z,6.00
2018-04-12T18:25:45.828Z,3.67
2018-04-12T18:28:14.149Z,3.50
2018-04-12T18:30:41.710Z,3.90
2018-04-12T18:33:09.231Z,5.17
2018-04-12T18:35:36.748Z,3.70
2018-04-12T18:38:09.947Z,8.83
2018-04-12T18:40:37.506Z,3.83
2018-04-12T18:43:10.892Z,4.93
2018-04-12T18:45:44.330Z,3.90
2018-04-12T18:48:17.519Z,4.20
2018-04-12T18:50:45.063Z,8.80
2018-04-12T18:53:12.597Z,3.40
2018-04-12T18:55:51.818Z,3.90
2018-04-12T18:58:19.350Z,4.00
2018-04-12T19:00:52.814Z,4.27
2018-04-12T19:03:20.373Z,5.50
2018-04-12T19:05:47.962Z,6.80
2018-04-12T19:08:16.256Z,10.67
2018-04-12T19:10:43.782Z,9.67
2018-04-12T19:13:17.131Z,5.63
2018-04-12T19:15:44.684Z,5.83
2018-04-12T19:18:12.201Z,4.70
2018-04-12T19:20:45.545Z,3.90
2018-04-12T19:23:13.107Z,4.83
2018-04-12T19:25:40.673Z,4.90
2018-04-12T19:28:08.198Z,9.70
2018-04-12T19:30:35.723Z,7.03
2018-04-12T19:33:03.243Z,4.90
2018-04-12T19:35:30.813Z,8.50
2018-04-12T19:37:58.349Z,7.33
2018-04-12T19:40:25.879Z,5.93
2018-04-12T19:42:53.440Z,10.83
2018-04-12T19:45:21.878Z,5.60
2018-04-12T19:47:49.400Z,7.00
2018-04-12T19:50:22.634Z,5.20
2018-04-12T19:52:56.162Z,5.77
2018-04-12T19:55:24.505Z,5.47
2018-04-12T19:57:52.053Z,8.10
2018-04-12T20:00:19.624Z,7.07
2018-04-12T20:02:47.164Z,5.50
2018-04-12T20:05:20.281Z,7.00
2018-04-12T20:07:47.827Z,4.90
2018-04-12T20:10:21.223Z,4.47
2018-04-12T20:12:48.774Z,4.90
2018-04-12T20:15:16.329Z,5.03
2018-04-12T20:17:55.537Z,9.60
2018-04-12T20:20:23.059Z,4.73
2018-04-12T20:22:51.402Z,5.43
2018-04-12T20:25:18.922Z,5.60
2018-04-12T20:27:46.488Z,5.50
2018-04-12T20:30:14.011Z,6.23
2018-04-12T20:32:42.686Z,4.70
2018-04-12T20:35:10.248Z,6.43
2018-04-12T20:37:37.826Z,5.10
2018-04-12T20:40:05.376Z,5.27
2018-04-12T20:42:33.663Z,6.40
2018-04-12T20:45:01.983Z,6.83
2018-04-12T20:47:29.546Z,9.70
2018-04-12T20:50:08.638Z,10.43
2018-04-12T20:52:36.165Z,8.47
2018-04-12T20:55:03.705Z,8.60
2018-04-12T20:57:31.228Z,7.97
2018-04-12T20:59:58.793Z,7.62
2018-04-12T21:02:33.072Z,6.85
2018-04-12T21:05:01.388Z,7.60
2018-04-12T21:07:28.948Z,7.07
2018-04-12T21:09:56.508Z,8.77
2018-04-12T21:12:24.077Z,13.77
2018-04-12T21:15:03.389Z,7.50
2018-04-12T21:17:36.867Z,7.32
2018-04-12T21:20:10.252Z,8.60
2018-04-12T21:22:38.545Z,6.78
2018-04-12T21:25:06.084Z,6.95
2018-04-12T21:27:34.370Z,6.35
2018-04-12T21:30:07.708Z,8.57
2018-04-12T21:32:35.268Z,13.55
2018-04-12T21:35:08.603Z,14.27
2018-04-12T21:37:36.890Z,6.65
2018-04-12T21:40:17.051Z,8.48
2018-04-12T21:42:50.431Z,7.40
2018-04-12T21:45:24.519Z,13.75
2018-04-12T21:47:52.035Z,8.27
2018-04-12T21:50:19.585Z,10.32
2018-04-12T21:52:52.911Z,8.05
2018-04-12T21:55:32.236Z,9.20
2018-04-12T21:57:59.809Z,8.75
2018-04-12T22:00:39.021Z,10.13
2018-04-12T22:03:12.157Z,8.25
2018-04-12T22:05:45.578Z,12.27
2018-04-12T22:08:13.132Z,9.70
2018-04-12T22:10:47.350Z,9.85
2018-04-12T22:13:21.401Z,8.30
2018-04-12T22:15:48.911Z,9.13
2018-04-12T22:18:22.270Z,11.77
2018-04-12T22:20:49.792Z,9.65
2018-04-12T22:23:17.315Z,8.90
2018-04-12T22:25:45.614Z,8.75
2018-04-12T22:28:13.129Z,9.48
2018-04-12T22:30:46.643Z,9.05
2018-04-12T22:33:14.927Z,9.07
2018-04-12T22:35:43.211Z,10.25
2018-04-12T22:38:11.535Z,9.00
2018-04-12T22:40:39.083Z,8.85
2018-04-12T22:43:06.603Z,9.00
2018-04-12T22:45:46.464Z,8.63
2018-04-12T22:48:13.990Z,13.02
2018-04-12T22:50:41.503Z,9.75
2018-04-12T22:53:09.022Z,8.18
2018-04-12T22:55:37.326Z,7.90
2018-04-12T22:58:04.884Z,11.68
2018-04-12T23:00:32.406Z,8.60
2018-04-12T23:03:05.750Z,13.73
2018-04-12T23:05:33.306Z,13.65
2018-04-12T23:08:00.830Z,10.68
2018-04-12T23:10:29.114Z,10.48
2018-04-12T23:12:57.394Z,9.02
2018-04-12T23:15:36.691Z,9.07
2018-04-12T23:18:10.061Z,9.45
2018-04-12T23:20:43.409Z,10.35
2018-04-12T23:23:17.494Z,8.10
2018-04-12T23:25:45.068Z,9.35
2018-04-12T23:28:12.599Z,8.13
2018-04-12T23:30:40.141Z,11.05
2018-04-12T23:33:07.672Z,8.52
2018-04-12T23:35:41.020Z,7.87
2018-04-12T23:38:08.536Z,9.68
2018-04-12T23:40:36.047Z,8.13
2018-04-12T23:43:03.582Z,7.55
2018-04-12T23:45:37.039Z,8.50
2018-04-12T23:48:04.589Z,11.63
2018-04-12T23:50:32.152Z,13.65
2018-04-12T23:52:59.695Z,11.40
2018-04-12T23:55:33.736Z,9.95
2018-04-12T23:58:01.284Z,12.80
